Terminal Aerodrome Forecast
Issued by NWS

Home | Current Version | Previous Version | Text Only | Print | Product List | Glossary On
Versions: 1 2 3 4 5 6 7 8 9 10 11 12 13 14
416
FTUS44 KTSA 220520
TAFFYV
TAF
KFYV 220520Z 2206/2306 00000KT P6SM OVC040
      TEMPO 2206/2210 4SM -SHRA BR BKN015
     FM221000 33005KT 3SM -SHRA BR OVC015
     FM221900 31006KT P6SM OVC015=

USA.gov is the U.S. government's official web portal to all federal, state and local government web resources and services.